Time;durP1;ratioP1;P1;durP2;ratioP2;P2;SDS_P1;SDS_P2;PMS_P1;PMS_P2;Temp;Humidity;BMP_temperature;BMP_pressure;BME280_temperature;BME280_humidity;BME280_pressure;Samples;Min_cycle;Max_cycle;Signal;HPM_P1;HPM_P2
2023/01/06 00:01:20;;;;;;;9.73;6.93;;;12.20;42.10;;;;;;10435712;28;20233;-70
2023/01/06 00:06:27;;;;;;;10.80;9.23;;;12.10;42.00;;;;;;10445728;28;20233;-71
2023/01/06 00:11:30;;;;;;;8.17;7.27;;;12.10;42.60;;;;;;10438403;28;20236;-71
2023/01/06 00:16:34;;;;;;;7.80;6.20;;;12.10;42.40;;;;;;10442654;28;20316;-71
2023/01/06 00:21:41;;;;;;;6.90;4.93;;;12.10;42.50;;;;;;10437100;28;20233;-71
2023/01/06 00:26:44;;;;;;;6.47;4.13;;;12.00;42.80;;;;;;10431348;28;20218;-71
2023/01/06 00:31:47;;;;;;;6.37;3.67;;;12.00;42.70;;;;;;10436607;28;20232;-71
2023/01/06 00:36:52;;;;;;;4.53;3.73;;;12.00;42.80;;;;;;10433081;28;20760;-71
2023/01/06 00:42:04;;;;;;;4.90;3.67;;;12.00;43.10;;;;;;10449494;28;20228;-71
2023/01/06 00:47:09;;;;;;;5.23;3.83;;;12.00;43.00;;;;;;10431154;28;20225;-70
2023/01/06 00:52:14;;;;;;;4.20;3.50;;;12.00;43.20;;;;;;10439005;28;20243;-71
2023/01/06 00:57:17;;;;;;;4.27;3.40;;;12.10;43.20;;;;;;10437773;28;20244;-71
2023/01/06 01:02:21;;;;;;;4.30;3.60;;;12.10;43.10;;;;;;10453684;28;20225;-71
2023/01/06 01:07:26;;;;;;;6.70;3.63;;;12.10;42.90;;;;;;10443595;28;20233;-71
2023/01/06 01:12:29;;;;;;;5.20;3.70;;;12.10;43.00;;;;;;10441606;28;20269;-74
2023/01/06 01:17:32;;;;;;;4.10;3.37;;;12.10;42.80;;;;;;10445414;28;20712;-73
2023/01/06 01:22:37;;;;;;;3.87;3.37;;;12.10;42.90;;;;;;10446288;28;20224;-73
2023/01/06 01:27:40;;;;;;;5.73;3.70;;;12.10;43.10;;;;;;10458476;28;20598;-74
2023/01/06 01:32:43;;;;;;;4.43;3.60;;;12.10;43.10;;;;;;10448799;28;20237;-73
2023/01/06 01:37:48;;;;;;;4.13;3.37;;;12.10;43.10;;;;;;10437149;28;20264;-73
2023/01/06 01:42:51;;;;;;;3.70;3.10;;;12.10;43.20;;;;;;10433550;28;20244;-73
2023/01/06 01:47:59;;;;;;;3.70;3.20;;;12.00;42.90;;;;;;10449086;28;20239;-73
2023/01/06 01:53:08;;;;;;;4.97;3.57;;;12.00;43.00;;;;;;10440825;28;20225;-73
2023/01/06 01:58:16;;;;;;;3.50;3.20;;;12.00;42.90;;;;;;10450666;28;20240;-73
2023/01/06 02:03:21;;;;;;;3.27;2.90;;;12.00;43.00;;;;;;10430423;28;20941;-73
2023/01/06 02:08:36;;;;;;;3.53;2.97;;;11.90;42.60;;;;;;10442108;28;20279;-73
2023/01/06 02:13:43;;;;;;;3.03;2.70;;;11.90;42.90;;;;;;10450371;28;20235;-73
2023/01/06 02:18:58;;;;;;;3.60;3.23;;;11.80;42.50;;;;;;10442553;28;20647;-73
2023/01/06 02:24:39;;;;;;;2.77;2.50;;;11.80;42.70;;;;;;10432748;28;20616;-73
2023/01/06 02:30:00;;;;;;;2.93;2.73;;;11.70;42.40;;;;;;10447142;28;20228;-67
2023/01/06 02:35:23;;;;;;;4.97;3.23;;;11.70;42.50;;;;;;10444540;28;20643;-68
2023/01/06 02:40:40;;;;;;;3.17;2.90;;;11.60;42.70;;;;;;10443171;28;20723;-67
2023/01/06 02:45:49;;;;;;;7.43;6.30;;;11.50;42.90;;;;;;10449147;28;20748;-67
2023/01/06 02:51:00;;;;;;;9.33;6.07;;;11.40;42.90;;;;;;10437243;28;20978;-67
2023/01/06 02:56:04;;;;;;;5.93;5.37;;;11.30;42.70;;;;;;10441038;28;20223;-68
2023/01/06 03:01:12;;;;;;;18.33;4.40;;;11.30;42.50;;;;;;10449842;28;20775;-68
2023/01/06 03:06:19;;;;;;;21.87;4.13;;;11.20;42.50;;;;;;10445916;28;20319;-67
2023/01/06 03:11:24;;;;;;;3.97;3.67;;;11.10;42.60;;;;;;10446052;28;20287;-67
2023/01/06 03:16:27;;;;;;;3.27;3.07;;;11.00;42.40;;;;;;10440735;28;20753;-67
2023/01/06 03:21:36;;;;;;;4.07;3.43;;;10.90;42.60;;;;;;10454477;28;20238;-67
2023/01/06 03:26:39;;;;;;;2.80;2.60;;;10.80;43.10;;;;;;10452372;28;20228;-67
2023/01/06 03:31:50;;;;;;;3.00;2.70;;;10.80;42.90;;;;;;10434294;28;20272;-67
2023/01/06 03:37:01;;;;;;;2.80;2.57;;;10.80;43.50;;;;;;10434219;28;20233;-67
2023/01/06 03:47:52;;;;;;;9.97;2.87;;;10.80;43.20;;;;;;10443972;28;20235;-69
2023/01/06 03:53:04;;;;;;;12.83;2.97;;;10.70;42.50;;;;;;10436406;28;20233;-68
2023/01/06 03:58:10;;;;;;;12.30;2.90;;;10.60;42.60;;;;;;10443223;28;20713;-70
2023/01/06 04:03:16;;;;;;;5.63;2.77;;;10.40;42.60;;;;;;10444207;28;20711;-71
2023/01/06 04:08:20;;;;;;;6.37;2.90;;;10.30;42.80;;;;;;10431201;28;20236;-70
2023/01/06 04:13:24;;;;;;;19.80;2.63;;;10.10;43.10;;;;;;10446015;28;20243;-70
2023/01/06 04:18:27;;;;;;;7.23;2.83;;;10.10;43.00;;;;;;10434595;28;20236;-70
2023/01/06 04:23:31;;;;;;;2.60;2.40;;;9.90;43.90;;;;;;10438742;28;20228;-70
2023/01/06 04:28:35;;;;;;;3.10;2.80;;;9.90;44.50;;;;;;10437464;28;20233;-70
2023/01/06 04:33:38;;;;;;;3.07;2.87;;;9.90;44.30;;;;;;10454517;28;20233;-71
2023/01/06 04:38:42;;;;;;;2.93;2.73;;;10.00;43.50;;;;;;10450279;28;20243;-71
2023/01/06 04:43:45;;;;;;;2.63;2.43;;;10.00;43.60;;;;;;10453513;28;20220;-71
2023/01/06 04:48:48;;;;;;;3.37;3.13;;;10.00;43.40;;;;;;10450427;28;20237;-70
2023/01/06 04:53:53;;;;;;;3.80;3.50;;;10.00;43.60;;;;;;10443575;28;20228;-71
2023/01/06 04:58:57;;;;;;;4.07;3.77;;;10.00;43.70;;;;;;10455484;28;20229;-71
2023/01/06 05:04:01;;;;;;;4.17;3.87;;;10.10;43.80;;;;;;10449908;28;20225;-70
2023/01/06 05:09:06;;;;;;;3.70;3.40;;;10.10;43.70;;;;;;10441353;28;20255;-70
2023/01/06 05:14:09;;;;;;;3.40;3.20;;;10.10;43.80;;;;;;10437851;28;20224;-70
2023/01/06 05:19:12;;;;;;;2.87;2.67;;;10.20;43.60;;;;;;10440815;28;20616;-70
2023/01/06 05:24:17;;;;;;;3.20;3.00;;;10.20;43.70;;;;;;10449015;28;20228;-70
2023/01/06 05:29:20;;;;;;;2.70;2.50;;;10.20;44.00;;;;;;10448535;28;20666;-67
2023/01/06 05:34:23;;;;;;;2.60;2.40;;;10.30;43.80;;;;;;10447363;28;20233;-67
2023/01/06 05:39:27;;;;;;;2.77;2.57;;;10.30;43.90;;;;;;10441829;28;20232;-67
2023/01/06 05:44:31;;;;;;;3.43;3.20;;;10.30;44.20;;;;;;10452018;28;20233;-67
2023/01/06 05:49:34;;;;;;;2.63;2.43;;;10.30;44.00;;;;;;10454048;28;20232;-67
2023/01/06 05:54:39;;;;;;;3.03;2.83;;;10.40;44.20;;;;;;10446651;28;20229;-67
2023/01/06 05:59:42;;;;;;;2.77;2.57;;;10.40;44.50;;;;;;10443380;28;20575;-67
2023/01/06 06:04:46;;;;;;;2.43;2.23;;;10.40;44.30;;;;;;10449593;28;20240;-67
2023/01/06 06:09:51;;;;;;;3.03;2.83;;;10.40;44.30;;;;;;10444949;28;20597;-67
2023/01/06 06:14:54;;;;;;;3.97;3.57;;;10.50;44.60;;;;;;10447950;28;20236;-68
2023/01/06 06:19:57;;;;;;;3.20;3.00;;;10.50;44.30;;;;;;10443002;28;20221;-68
2023/01/06 06:25:01;;;;;;;4.10;3.70;;;10.50;44.30;;;;;;10436856;28;20228;-67
2023/01/06 06:30:06;;;;;;;3.13;2.90;;;10.50;44.70;;;;;;10439387;28;20232;-67
2023/01/06 06:35:09;;;;;;;3.07;2.83;;;10.60;44.50;;;;;;10451680;28;21011;-68
2023/01/06 06:40:14;;;;;;;3.17;2.87;;;10.60;44.40;;;;;;10443928;28;20224;-67
2023/01/06 06:45:17;;;;;;;3.00;2.80;;;10.60;44.50;;;;;;10447934;28;20235;-67
2023/01/06 06:50:20;;;;;;;2.60;2.40;;;10.60;44.40;;;;;;10445891;28;20232;-67
2023/01/06 06:55:25;;;;;;;2.80;2.60;;;10.60;44.40;;;;;;10444002;28;20568;-67
2023/01/06 07:00:28;;;;;;;2.93;2.73;;;10.60;44.70;;;;;;10450145;28;20252;-68
2023/01/06 07:05:31;;;;;;;3.30;2.67;;;10.60;44.40;;;;;;10434531;28;20232;-73
2023/01/06 07:10:36;;;;;;;3.17;2.87;;;10.60;44.40;;;;;;10435055;28;20236;-73
2023/01/06 07:15:39;;;;;;;3.20;3.00;;;10.50;44.50;;;;;;10446320;28;20225;-67
2023/01/06 07:20:47;;;;;;;3.67;3.37;;;10.50;44.20;;;;;;10442512;28;20316;-67
2023/01/06 07:25:53;;;;;;;3.40;3.10;;;10.60;44.50;;;;;;10481684;22;20224;-74
2023/01/06 07:30:56;;;;;;;3.10;2.90;;;10.50;44.50;;;;;;10476501;28;20224;-74
2023/01/06 07:36:00;;;;;;;3.10;2.90;;;10.50;43.90;;;;;;10465991;28;20236;-75
2023/01/06 07:41:04;;;;;;;2.83;2.63;;;10.40;43.80;;;;;;10443672;28;20596;-74
2023/01/06 07:46:08;;;;;;;3.03;2.70;;;10.40;44.00;;;;;;10442896;28;20237;-74
2023/01/06 07:51:11;;;;;;;2.90;2.70;;;10.40;43.80;;;;;;10444536;28;20229;-74
2023/01/06 07:56:16;;;;;;;3.10;2.90;;;10.40;43.70;;;;;;10446832;28;20626;-75
2023/01/06 08:01:19;;;;;;;2.90;2.70;;;10.40;44.00;;;;;;10454502;28;20229;-74
2023/01/06 08:06:22;;;;;;;2.33;2.20;;;10.40;43.90;;;;;;10440399;28;20237;-74
2023/01/06 08:11:26;;;;;;;2.73;2.53;;;10.40;44.00;;;;;;10437090;28;20236;-74
2023/01/06 08:16:29;;;;;;;2.73;2.53;;;10.40;44.20;;;;;;10448630;28;20224;-74
2023/01/06 08:21:33;;;;;;;3.40;2.10;;;10.40;44.10;;;;;;10449576;28;20229;-74
2023/01/06 08:26:37;;;;;;;2.47;2.27;;;10.50;44.40;;;;;;10455570;28;20239;-74
2023/01/06 08:31:40;;;;;;;2.47;2.27;;;10.50;44.50;;;;;;10453400;28;20225;-74
2023/01/06 08:36:44;;;;;;;2.37;2.17;;;10.60;44.50;;;;;;10445371;28;20247;-74
2023/01/06 08:41:50;;;;;;;2.27;2.10;;;10.60;44.80;;;;;;10438710;28;20221;-74
2023/01/06 08:46:53;;;;;;;2.10;2.00;;;10.70;45.20;;;;;;10455692;28;20224;-74
2023/01/06 08:51:56;;;;;;;1.97;1.87;;;10.90;45.30;;;;;;10446428;28;20263;-74
2023/01/06 08:57:01;;;;;;;1.80;1.70;;;11.00;45.30;;;;;;10450146;28;20229;-74
2023/01/06 09:02:05;;;;;;;2.20;2.10;;;11.20;45.80;;;;;;10449937;28;20231;-74
2023/01/06 09:07:08;;;;;;;2.30;2.13;;;11.30;45.40;;;;;;10453529;28;20249;-73
2023/01/06 09:12:13;;;;;;;3.70;3.40;;;11.40;45.20;;;;;;10450587;28;20221;-74
2023/01/06 09:17:16;;;;;;;3.37;3.07;;;11.50;45.30;;;;;;10451585;28;20236;-74
2023/01/06 09:22:19;;;;;;;2.60;2.40;;;11.60;45.20;;;;;;10453360;28;20287;-74
2023/01/06 09:27:24;;;;;;;2.50;1.97;;;11.70;45.30;;;;;;10450626;28;20245;-74
2023/01/06 09:32:27;;;;;;;1.83;1.73;;;11.80;45.40;;;;;;10432928;28;20327;-74
2023/01/06 09:37:30;;;;;;;5.97;3.67;;;12.00;45.40;;;;;;10446174;28;20290;-74
2023/01/06 09:42:45;;;;;;;2.43;2.23;;;12.10;45.40;;;;;;10446769;28;20252;-74
2023/01/06 09:47:55;;;;;;;2.43;2.10;;;12.30;45.50;;;;;;10440222;28;20751;-70
2023/01/06 09:53:03;;;;;;;2.33;2.07;;;12.40;45.40;;;;;;10440402;28;20237;-70
2023/01/06 09:58:13;;;;;;;2.60;2.40;;;12.50;45.10;;;;;;10439094;28;20225;-69
2023/01/06 10:03:18;;;;;;;2.30;1.90;;;12.70;45.10;;;;;;10444583;28;20658;-73
2023/01/06 10:08:29;;;;;;;1.73;1.63;;;12.80;44.80;;;;;;10448687;28;20267;-73
2023/01/06 10:13:47;;;;;;;1.90;1.80;;;12.90;44.70;;;;;;10439684;28;20228;-73
2023/01/06 10:18:59;;;;;;;1.73;1.63;;;12.90;44.40;;;;;;10438465;28;20241;-71
2023/01/06 10:24:32;;;;;;;1.80;1.70;;;13.10;44.20;;;;;;10454733;28;20634;-69
2023/01/06 10:29:38;;;;;;;2.07;1.97;;;13.10;44.10;;;;;;10441618;28;20237;-71
2023/01/06 10:34:41;;;;;;;1.83;1.70;;;13.20;44.40;;;;;;10444171;28;20233;-71
2023/01/06 10:39:48;;;;;;;2.47;1.90;;;13.30;44.60;;;;;;10424557;28;20339;-71
2023/01/06 10:44:52;;;;;;;2.27;2.17;;;13.30;44.30;;;;;;10430227;28;20624;-71
2023/01/06 10:49:56;;;;;;;2.23;2.03;;;13.40;43.90;;;;;;10428169;28;20228;-71
2023/01/06 10:55:05;;;;;;;19.43;13.13;;;13.50;44.10;;;;;;10425614;28;20735;-67
2023/01/06 11:00:21;;;;;;;8.83;7.20;;;13.50;44.00;;;;;;10429669;28;20237;-66
2023/01/06 11:05:27;;;;;;;10.63;9.60;;;13.70;43.70;;;;;;10428202;28;20239;-67
2023/01/06 11:10:34;;;;;;;3.80;3.50;;;13.70;43.90;;;;;;10430722;28;20237;-67
2023/01/06 11:15:41;;;;;;;4.53;3.87;;;13.90;43.40;;;;;;10429129;28;20221;-68
2023/01/06 11:20:45;;;;;;;4.43;4.03;;;13.90;43.40;;;;;;10422656;28;20229;-67
2023/01/06 11:26:02;;;;;;;2.77;2.57;;;14.00;43.90;;;;;;10423953;28;20248;-67
2023/01/06 11:31:08;;;;;;;2.47;2.27;;;14.10;43.60;;;;;;10427123;28;20228;-67
2023/01/06 11:36:14;;;;;;;2.80;2.60;;;14.20;43.60;;;;;;10431765;28;20236;-67
2023/01/06 11:41:25;;;;;;;3.20;3.00;;;14.20;44.30;;;;;;10431132;28;20238;-67
2023/01/06 11:46:30;;;;;;;3.70;3.40;;;14.10;43.60;;;;;;10430337;28;20239;-67
2023/01/06 11:51:47;;;;;;;3.27;3.07;;;14.10;43.60;;;;;;10438914;28;20239;-71
2023/01/06 11:56:58;;;;;;;3.10;2.90;;;14.00;43.40;;;;;;10438146;28;20236;-71
2023/01/06 12:02:03;;;;;;;2.77;2.57;;;14.00;44.00;;;;;;10435303;28;20248;-71
2023/01/06 12:07:19;;;;;;;2.77;2.57;;;14.00;44.10;;;;;;10433326;28;20221;-71
2023/01/06 12:12:26;;;;;;;2.73;2.53;;;14.00;43.40;;;;;;10432338;28;20236;-70
2023/01/06 12:17:42;;;;;;;2.37;2.20;;;14.00;43.50;;;;;;10439100;28;20306;-69
2023/01/06 12:22:48;;;;;;;3.07;2.23;;;14.00;43.40;;;;;;10438725;28;20224;-70
2023/01/06 12:27:56;;;;;;;2.40;2.20;;;14.00;43.70;;;;;;10436208;28;20721;-69
2023/01/06 12:33:10;;;;;;;2.20;2.10;;;14.10;43.80;;;;;;10439046;28;20278;-69
2023/01/06 12:38:28;;;;;;;2.00;1.90;;;14.10;43.60;;;;;;10438708;28;20236;-69
2023/01/06 12:43:37;;;;;;;2.20;2.10;;;14.10;43.60;;;;;;10439578;28;20236;-70
2023/01/06 12:48:47;;;;;;;1.70;1.60;;;14.20;43.60;;;;;;10436201;28;20242;-70
2023/01/06 12:53:55;;;;;;;2.50;1.70;;;14.20;43.60;;;;;;10434853;28;20239;-70
2023/01/06 12:59:12;;;;;;;2.10;2.00;;;14.20;43.60;;;;;;10432946;28;20720;-70
2023/01/06 13:04:44;;;;;;;2.20;2.10;;;14.20;43.00;;;;;;10440478;28;20680;-70
2023/01/06 13:09:58;;;;;;;2.30;2.17;;;14.10;43.10;;;;;;10444461;28;20640;-71
2023/01/06 13:15:09;;;;;;;3.43;3.13;;;14.00;43.30;;;;;;10442865;28;20229;-71
2023/01/06 13:20:20;;;;;;;2.47;2.30;;;13.90;43.40;;;;;;10442511;28;20224;-71
2023/01/06 13:25:49;;;;;;;2.20;2.10;;;13.80;43.30;;;;;;10443860;28;20597;-72
2023/01/06 13:31:19;;;;;;;2.43;2.27;;;13.70;43.20;;;;;;10445360;28;20282;-72
2023/01/06 13:36:43;;;;;;;17.93;16.03;;;13.60;43.80;;;;;;10444861;28;20232;-74
2023/01/06 13:41:53;;;;;;;11.30;10.10;;;13.60;43.40;;;;;;10445826;28;20783;-74
2023/01/06 13:47:03;;;;;;;4.43;4.03;;;13.60;43.40;;;;;;10441789;28;20853;-74
2023/01/06 13:52:15;;;;;;;3.03;2.83;;;13.60;43.40;;;;;;10438355;28;20290;-74
2023/01/06 13:57:31;;;;;;;3.17;2.67;;;13.60;43.10;;;;;;10439874;28;20660;-74
2023/01/06 14:03:01;;;;;;;2.60;2.40;;;13.60;43.10;;;;;;10442206;28;20228;-74
2023/01/06 14:08:17;;;;;;;2.50;2.30;;;13.60;43.10;;;;;;10438610;28;20229;-74
2023/01/06 14:13:22;;;;;;;2.70;2.50;;;13.60;43.10;;;;;;10440438;28;20262;-74
2023/01/06 14:18:32;;;;;;;2.27;2.07;;;13.50;43.00;;;;;;10441313;28;20227;-74
2023/01/06 14:23:37;;;;;;;2.13;2.03;;;13.50;43.00;;;;;;10432329;28;20771;-74
2023/01/06 14:28:41;;;;;;;2.50;2.30;;;13.50;43.00;;;;;;10454760;28;20231;-74
2023/01/06 14:33:44;;;;;;;3.63;2.93;;;13.50;43.20;;;;;;10447687;28;20228;-74
2023/01/06 14:38:52;;;;;;;2.37;2.20;;;13.50;43.70;;;;;;10438679;28;20232;-68
2023/01/06 14:44:00;;;;;;;2.77;2.57;;;13.40;43.50;;;;;;10439211;28;20216;-69
2023/01/06 14:49:06;;;;;;;2.97;2.77;;;13.50;43.80;;;;;;10437048;28;20231;-70
2023/01/06 14:54:21;;;;;;;3.97;3.57;;;13.50;43.30;;;;;;10435930;28;20233;-71
2023/01/06 14:59:25;;;;;;;2.80;2.60;;;13.50;43.30;;;;;;10442143;28;20243;-71
2023/01/06 15:04:30;;;;;;;2.50;2.30;;;13.50;43.40;;;;;;10441263;28;20236;-71
2023/01/06 15:09:35;;;;;;;2.40;2.20;;;13.50;43.30;;;;;;10436113;28;20775;-71
2023/01/06 15:14:38;;;;;;;4.87;3.40;;;13.50;43.30;;;;;;10439295;28;20229;-71
2023/01/06 15:19:43;;;;;;;3.30;3.10;;;13.60;43.20;;;;;;10433254;28;20232;-71
2023/01/06 15:24:49;;;;;;;3.23;3.03;;;13.60;43.10;;;;;;10439348;28;20225;-71
2023/01/06 15:29:54;;;;;;;2.40;2.30;;;13.60;43.10;;;;;;10441006;28;20225;-71
2023/01/06 15:34:58;;;;;;;2.77;2.57;;;13.60;43.10;;;;;;10435374;28;20229;-71
2023/01/06 15:40:05;;;;;;;2.73;2.53;;;13.70;43.20;;;;;;10435295;28;20311;-71
2023/01/06 15:45:23;;;;;;;3.37;3.07;;;13.70;43.20;;;;;;10438579;28;20241;-69
2023/01/06 15:50:30;;;;;;;2.90;2.70;;;13.70;43.20;;;;;;10433274;28;21027;-71
2023/01/06 15:55:38;;;;;;;2.70;2.47;;;13.70;43.20;;;;;;10442245;28;20236;-72
2023/01/06 16:00:46;;;;;;;2.57;2.37;;;13.80;43.30;;;;;;10442892;28;20228;-72
2023/01/06 16:05:51;;;;;;;2.80;2.60;;;13.80;43.30;;;;;;10439408;28;20232;-71
2023/01/06 16:16:50;;;;;;;2.40;2.30;;;13.90;43.40;;;;;;10438651;28;20270;-71
2023/01/06 16:21:55;;;;;;;2.43;2.23;;;13.90;43.40;;;;;;10443517;28;20659;-73
2023/01/06 16:27:02;;;;;;;2.70;2.40;;;13.90;43.40;;;;;;10456914;28;20233;-73
2023/01/06 16:32:26;;;;;;;2.93;2.53;;;13.90;43.40;;;;;;10448407;28;20700;-72
2023/01/06 16:37:33;;;;;;;2.77;2.57;;;13.90;43.40;;;;;;10455623;28;20713;-72
2023/01/06 16:42:42;;;;;;;2.60;2.40;;;13.90;43.40;;;;;;10447039;28;20225;-72
2023/01/06 16:47:45;;;;;;;3.67;3.37;;;13.90;43.40;;;;;;10442750;28;20236;-72
2023/01/06 16:52:53;;;;;;;3.73;3.43;;;14.00;43.40;;;;;;10458996;28;20236;-71
2023/01/06 16:57:59;;;;;;;28.23;25.53;;;14.00;43.50;;;;;;10443754;28;20245;-70
2023/01/06 17:03:13;;;;;;;34.80;31.83;;;13.90;43.40;;;;;;10435637;28;20691;-71
2023/01/06 17:08:21;;;;;;;15.73;14.43;;;14.00;43.40;;;;;;10445294;28;20236;-71
2023/01/06 17:13:34;;;;;;;12.93;11.93;;;13.90;43.40;;;;;;10437872;28;20248;-71
2023/01/06 17:18:48;;;;;;;8.80;8.10;;;13.90;43.40;;;;;;10436256;28;20243;-68
2023/01/06 17:23:54;;;;;;;6.70;6.20;;;13.90;43.40;;;;;;10433278;28;20221;-69
2023/01/06 17:29:01;;;;;;;6.60;6.00;;;13.90;43.40;;;;;;10428590;28;20342;-68
2023/01/06 17:34:12;;;;;;;5.67;5.17;;;13.90;43.40;;;;;;10433696;28;20233;-68
2023/01/06 17:39:21;;;;;;;6.00;5.50;;;13.90;43.40;;;;;;10435275;28;20241;-68
2023/01/06 17:44:35;;;;;;;6.23;5.73;;;13.90;43.40;;;;;;10435538;28;20241;-68
2023/01/06 17:49:39;;;;;;;6.03;5.53;;;13.90;43.40;;;;;;10436114;28;20225;-68
2023/01/06 18:00:21;;;;;;;5.43;4.93;;;13.90;43.40;;;;;;10439281;28;20230;-68
2023/01/06 18:05:56;;;;;;;5.53;4.77;;;13.90;43.40;;;;;;10442131;28;20240;-68
2023/01/06 18:11:16;;;;;;;5.27;4.77;;;13.90;43.40;;;;;;10439861;28;20225;-68
2023/01/06 18:16:28;;;;;;;5.40;4.90;;;13.90;43.40;;;;;;10443976;28;20287;-71
2023/01/06 18:21:36;;;;;;;5.90;5.40;;;13.90;43.40;;;;;;10437361;28;20233;-68
2023/01/06 18:26:45;;;;;;;6.10;5.60;;;13.90;43.40;;;;;;10443095;28;20224;-68
2023/01/06 18:31:51;;;;;;;5.13;4.73;;;13.90;43.40;;;;;;10442891;28;20229;-71
2023/01/06 18:36:56;;;;;;;5.57;5.00;;;13.90;43.40;;;;;;10440914;28;20243;-74
2023/01/06 18:42:28;;;;;;;9.33;6.67;;;13.90;43.40;;;;;;10440597;28;20633;-73
2023/01/06 18:47:35;;;;;;;5.30;4.87;;;13.80;47.20;;;;;;10396577;28;20762;-70
2023/01/06 18:52:41;;;;;;;4.60;4.30;;;13.90;44.40;;;;;;10440836;28;20237;-70
2023/01/06 18:57:45;;;;;;;4.53;4.23;;;13.90;43.90;;;;;;10438479;28;20243;-67
2023/01/06 19:02:52;;;;;;;4.57;4.17;;;13.90;43.40;;;;;;10438777;28;20260;-68
2023/01/06 19:07:56;;;;;;;4.43;4.03;;;13.90;43.40;;;;;;10439406;28;20236;-68
2023/01/06 19:13:00;;;;;;;4.63;4.23;;;13.90;43.40;;;;;;10438563;28;20224;-68
2023/01/06 19:18:12;;;;;;;4.13;3.80;;;13.80;43.30;;;;;;10439992;28;20232;-68
2023/01/06 19:23:19;;;;;;;5.33;4.83;;;13.80;43.30;;;;;;10440545;28;20720;-68
2023/01/06 19:28:25;;;;;;;5.80;5.30;;;13.70;43.20;;;;;;10434991;28;20251;-68
2023/01/06 19:33:39;;;;;;;13.13;10.00;;;13.60;43.10;;;;;;10440316;28;20235;-68
2023/01/06 19:38:43;;;;;;;18.33;12.57;;;13.50;43.10;;;;;;10435058;28;20231;-68
2023/01/06 19:43:48;;;;;;;23.33;17.70;;;13.50;43.30;;;;;;10436993;28;20233;-68
2023/01/06 19:48:54;;;;;;;23.03;17.47;;;13.40;43.40;;;;;;10437050;28;20236;-68
2023/01/06 19:54:02;;;;;;;21.20;16.40;;;13.40;43.50;;;;;;10439436;28;21028;-68
2023/01/06 19:59:14;;;;;;;17.00;14.87;;;13.40;43.60;;;;;;10440409;28;20229;-68
2023/01/06 20:04:21;;;;;;;16.73;12.33;;;13.30;43.60;;;;;;10439643;28;20236;-68
2023/01/06 20:09:25;;;;;;;12.83;10.87;;;13.30;43.70;;;;;;10437563;28;20237;-68
2023/01/06 20:14:28;;;;;;;11.20;9.57;;;13.30;43.70;;;;;;10419923;28;20898;-68
2023/01/06 20:19:32;;;;;;;8.87;7.97;;;13.30;43.70;;;;;;10427810;28;20244;-68
2023/01/06 20:24:36;;;;;;;9.57;8.57;;;13.30;43.70;;;;;;10427147;28;20239;-70
2023/01/06 20:29:39;;;;;;;8.10;6.73;;;13.20;43.60;;;;;;10426793;28;20291;-68
2023/01/06 20:34:43;;;;;;;7.97;7.17;;;13.20;43.70;;;;;;10431796;28;20229;-68
2023/01/06 20:39:46;;;;;;;6.93;6.23;;;13.20;43.70;;;;;;10433719;28;20225;-68
2023/01/06 20:44:50;;;;;;;7.57;6.87;;;13.20;43.60;;;;;;10434297;28;20240;-68
2023/01/06 20:49:55;;;;;;;8.10;7.27;;;13.20;43.50;;;;;;10428414;28;20229;-68
2023/01/06 20:54:58;;;;;;;7.60;6.90;;;13.10;43.70;;;;;;10427860;28;20244;-68
2023/01/06 21:00:02;;;;;;;6.90;6.23;;;13.10;43.80;;;;;;10429841;28;20236;-67
2023/01/06 21:05:07;;;;;;;7.43;6.83;;;13.10;43.90;;;;;;10432671;28;20229;-68
2023/01/06 21:10:10;;;;;;;7.63;6.93;;;13.10;44.00;;;;;;10434678;28;20231;-70
2023/01/06 21:15:14;;;;;;;8.73;7.80;;;13.10;43.80;;;;;;10437217;28;20229;-70
2023/01/06 21:20:19;;;;;;;8.90;8.00;;;13.10;43.90;;;;;;10437500;28;20229;-70
2023/01/06 21:25:23;;;;;;;8.33;6.93;;;13.10;44.10;;;;;;10434576;28;20237;-70
2023/01/06 21:30:27;;;;;;;7.53;6.83;;;13.10;44.10;;;;;;10433894;28;20294;-70
2023/01/06 21:35:32;;;;;;;9.30;8.40;;;13.10;44.00;;;;;;10434893;28;20236;-70
2023/01/06 21:40:35;;;;;;;8.73;7.93;;;13.10;44.00;;;;;;10429324;28;20591;-70
2023/01/06 21:45:40;;;;;;;9.07;8.17;;;13.10;43.90;;;;;;10429875;28;20233;-71
2023/01/06 21:50:46;;;;;;;9.90;9.00;;;13.00;43.90;;;;;;10430182;28;20229;-70
2023/01/06 21:55:49;;;;;;;9.93;8.93;;;13.00;44.10;;;;;;10426167;28;20804;-70
2023/01/06 22:00:54;;;;;;;11.30;8.83;;;12.90;44.00;;;;;;10429549;28;20568;-71
2023/01/06 22:06:00;;;;;;;9.20;8.40;;;12.90;44.00;;;;;;10427820;28;20225;-75
2023/01/06 22:11:04;;;;;;;8.37;7.67;;;12.90;44.30;;;;;;10426265;28;20218;-75
2023/01/06 22:16:08;;;;;;;6.47;5.97;;;12.90;44.10;;;;;;10435198;28;20232;-75
2023/01/06 22:21:13;;;;;;;5.60;5.10;;;12.80;44.20;;;;;;10432729;28;20257;-75
2023/01/06 22:26:17;;;;;;;6.60;6.00;;;12.80;44.40;;;;;;10436703;28;20240;-75
2023/01/06 22:31:20;;;;;;;6.17;5.63;;;12.80;44.90;;;;;;10439978;28;20738;-75
2023/01/06 22:36:24;;;;;;;6.07;5.57;;;12.70;44.20;;;;;;10441608;28;20232;-75
2023/01/06 22:41:27;;;;;;;6.57;5.97;;;12.70;44.50;;;;;;10435760;28;20727;-75
2023/01/06 22:46:31;;;;;;;6.00;5.50;;;12.70;44.30;;;;;;10437720;28;20267;-72
2023/01/06 22:51:35;;;;;;;5.90;5.33;;;12.70;44.40;;;;;;10438446;28;20225;-72
2023/01/06 22:56:39;;;;;;;5.30;4.80;;;12.70;44.60;;;;;;10439949;28;20240;-72
2023/01/06 23:01:44;;;;;;;5.80;5.30;;;12.70;44.50;;;;;;10440152;28;20601;-70
2023/01/06 23:06:49;;;;;;;5.90;5.40;;;12.70;44.50;;;;;;10439291;28;20243;-70
2023/01/06 23:11:52;;;;;;;6.07;5.43;;;12.80;44.60;;;;;;10435983;28;20762;-70
2023/01/06 23:16:55;;;;;;;5.40;4.90;;;12.80;44.40;;;;;;10439307;28;20678;-70
2023/01/06 23:22:00;;;;;;;5.80;5.30;;;12.80;44.40;;;;;;10441912;28;20596;-70
2023/01/06 23:27:03;;;;;;;5.50;4.87;;;12.90;44.50;;;;;;10437932;28;20225;-70
2023/01/06 23:32:06;;;;;;;5.37;4.93;;;12.90;44.50;;;;;;10441347;28;20229;-70
2023/01/06 23:37:10;;;;;;;5.47;5.00;;;12.90;44.40;;;;;;10442083;28;20237;-70
2023/01/06 23:42:14;;;;;;;5.33;4.93;;;12.90;44.40;;;;;;10437784;28;20241;-70
2023/01/06 23:47:17;;;;;;;5.40;5.00;;;12.90;44.50;;;;;;10437555;28;20241;-70
2023/01/06 23:52:21;;;;;;;4.70;4.30;;;12.90;44.40;;;;;;10439325;28;20243;-70
2023/01/06 23:57:25;;;;;;;5.20;4.80;;;12.90;44.40;;;;;;10442717;28;20644;-70
